sensor_id;sensor_type;location;lat;lon;timestamp;P1;durP1;ratioP1;P2;durP2;ratioP2
41711;SDS011;27399;51.516;13.670;2023-10-31T00:01:03;11.15;;;4.25;;
41711;SDS011;27399;51.516;13.670;2023-10-31T00:03:28;10.27;;;3.90;;
41711;SDS011;27399;51.516;13.670;2023-10-31T00:05:54;11.75;;;4.10;;
41711;SDS011;27399;51.516;13.670;2023-10-31T00:08:19;13.07;;;3.28;;
41711;SDS011;27399;51.516;13.670;2023-10-31T00:10:45;13.43;;;3.17;;
41711;SDS011;27399;51.516;13.670;2023-10-31T00:13:11;16.05;;;4.40;;
41711;SDS011;27399;51.516;13.670;2023-10-31T00:15:37;13.77;;;3.60;;
41711;SDS011;27399;51.516;13.670;2023-10-31T00:18:02;15.38;;;3.67;;
41711;SDS011;27399;51.516;13.670;2023-10-31T00:23:49;10.30;;;4.20;;
41711;SDS011;27399;51.516;13.670;2023-10-31T00:26:15;5.15;;;3.30;;
41711;SDS011;27399;51.516;13.670;2023-10-31T00:28:40;13.20;;;4.07;;
41711;SDS011;27399;51.516;13.670;2023-10-31T00:31:07;7.53;;;3.50;;
41711;SDS011;27399;51.516;13.670;2023-10-31T00:33:35;10.77;;;4.43;;
41711;SDS011;27399;51.516;13.670;2023-10-31T00:36:01;11.05;;;3.85;;
41711;SDS011;27399;51.516;13.670;2023-10-31T00:38:27;13.32;;;3.83;;
41711;SDS011;27399;51.516;13.670;2023-10-31T00:40:53;19.42;;;5.45;;
41711;SDS011;27399;51.516;13.670;2023-10-31T00:43:18;17.75;;;4.10;;
41711;SDS011;27399;51.516;13.670;2023-10-31T00:45:44;14.85;;;3.88;;
41711;SDS011;27399;51.516;13.670;2023-10-31T00:48:09;9.77;;;3.80;;
41711;SDS011;27399;51.516;13.670;2023-10-31T00:50:35;8.48;;;4.25;;
41711;SDS011;27399;51.516;13.670;2023-10-31T00:53:00;11.90;;;4.78;;
41711;SDS011;27399;51.516;13.670;2023-10-31T00:55:26;15.63;;;4.80;;
41711;SDS011;27399;51.516;13.670;2023-10-31T00:57:51;9.30;;;4.10;;
41711;SDS011;27399;51.516;13.670;2023-10-31T01:00:17;6.60;;;3.85;;
41711;SDS011;27399;51.516;13.670;2023-10-31T01:02:43;9.73;;;4.60;;
41711;SDS011;27399;51.516;13.670;2023-10-31T01:05:08;11.18;;;4.85;;
41711;SDS011;27399;51.516;13.670;2023-10-31T01:07:36;11.00;;;4.68;;
41711;SDS011;27399;51.516;13.670;2023-10-31T01:10:02;10.65;;;5.25;;
41711;SDS011;27399;51.516;13.670;2023-10-31T01:12:28;8.85;;;4.50;;
41711;SDS011;27399;51.516;13.670;2023-10-31T01:14:54;10.85;;;4.65;;
41711;SDS011;27399;51.516;13.670;2023-10-31T01:17:20;9.32;;;4.68;;
41711;SDS011;27399;51.516;13.670;2023-10-31T01:19:46;11.50;;;4.47;;
41711;SDS011;27399;51.516;13.670;2023-10-31T01:22:11;10.32;;;5.53;;
41711;SDS011;27399;51.516;13.670;2023-10-31T01:24:37;11.55;;;4.72;;
41711;SDS011;27399;51.516;13.670;2023-10-31T01:27:02;15.18;;;5.53;;
41711;SDS011;27399;51.516;13.670;2023-10-31T01:29:28;14.88;;;5.68;;
41711;SDS011;27399;51.516;13.670;2023-10-31T01:31:54;14.52;;;4.30;;
41711;SDS011;27399;51.516;13.670;2023-10-31T01:34:20;9.05;;;4.90;;
41711;SDS011;27399;51.516;13.670;2023-10-31T01:36:46;9.32;;;4.70;;
41711;SDS011;27399;51.516;13.670;2023-10-31T01:39:11;6.50;;;4.57;;
41711;SDS011;27399;51.516;13.670;2023-10-31T01:41:37;10.02;;;5.32;;
41711;SDS011;27399;51.516;13.670;2023-10-31T01:44:05;6.82;;;4.85;;
41711;SDS011;27399;51.516;13.670;2023-10-31T01:46:31;10.32;;;4.82;;
41711;SDS011;27399;51.516;13.670;2023-10-31T01:48:56;11.90;;;5.20;;
41711;SDS011;27399;51.516;13.670;2023-10-31T01:51:22;10.77;;;5.97;;
41711;SDS011;27399;51.516;13.670;2023-10-31T01:53:48;7.40;;;4.60;;
41711;SDS011;27399;51.516;13.670;2023-10-31T01:56:14;12.93;;;5.43;;
41711;SDS011;27399;51.516;13.670;2023-10-31T01:58:39;9.60;;;5.38;;
41711;SDS011;27399;51.516;13.670;2023-10-31T02:01:06;8.45;;;4.93;;
41711;SDS011;27399;51.516;13.670;2023-10-31T02:03:32;8.27;;;5.60;;
41711;SDS011;27399;51.516;13.670;2023-10-31T02:05:58;10.68;;;5.35;;
41711;SDS011;27399;51.516;13.670;2023-10-31T02:08:24;10.93;;;5.20;;
41711;SDS011;27399;51.516;13.670;2023-10-31T02:10:50;9.77;;;5.22;;
41711;SDS011;27399;51.516;13.670;2023-10-31T02:13:16;11.48;;;5.57;;
41711;SDS011;27399;51.516;13.670;2023-10-31T02:15:43;9.02;;;6.00;;
41711;SDS011;27399;51.516;13.670;2023-10-31T02:18:09;14.05;;;7.57;;
41711;SDS011;27399;51.516;13.670;2023-10-31T02:20:35;13.70;;;6.90;;
41711;SDS011;27399;51.516;13.670;2023-10-31T02:23:02;13.88;;;5.88;;
41711;SDS011;27399;51.516;13.670;2023-10-31T02:25:28;10.32;;;5.80;;
41711;SDS011;27399;51.516;13.670;2023-10-31T02:27:54;11.70;;;7.25;;
41711;SDS011;27399;51.516;13.670;2023-10-31T02:30:20;17.98;;;7.70;;
41711;SDS011;27399;51.516;13.670;2023-10-31T02:32:45;16.27;;;7.13;;
41711;SDS011;27399;51.516;13.670;2023-10-31T02:35:11;14.18;;;7.53;;
41711;SDS011;27399;51.516;13.670;2023-10-31T02:37:37;18.50;;;8.57;;
41711;SDS011;27399;51.516;13.670;2023-10-31T02:40:03;15.27;;;10.23;;
41711;SDS011;27399;51.516;13.670;2023-10-31T02:42:29;17.65;;;10.27;;
41711;SDS011;27399;51.516;13.670;2023-10-31T02:44:55;17.13;;;10.60;;
41711;SDS011;27399;51.516;13.670;2023-10-31T02:47:21;17.88;;;9.93;;
41711;SDS011;27399;51.516;13.670;2023-10-31T02:49:46;20.90;;;13.07;;
41711;SDS011;27399;51.516;13.670;2023-10-31T02:52:12;21.88;;;12.10;;
41711;SDS011;27399;51.516;13.670;2023-10-31T02:54:38;21.17;;;12.48;;
41711;SDS011;27399;51.516;13.670;2023-10-31T02:57:03;22.95;;;13.80;;
41711;SDS011;27399;51.516;13.670;2023-10-31T02:59:29;23.98;;;13.35;;
41711;SDS011;27399;51.516;13.670;2023-10-31T03:01:55;21.35;;;13.50;;
41711;SDS011;27399;51.516;13.670;2023-10-31T03:04:22;22.42;;;13.07;;
41711;SDS011;27399;51.516;13.670;2023-10-31T03:06:48;21.83;;;12.93;;
41711;SDS011;27399;51.516;13.670;2023-10-31T03:09:13;20.95;;;13.75;;
41711;SDS011;27399;51.516;13.670;2023-10-31T03:11:39;19.52;;;12.10;;
41711;SDS011;27399;51.516;13.670;2023-10-31T03:14:05;21.63;;;13.10;;
41711;SDS011;27399;51.516;13.670;2023-10-31T03:16:31;20.25;;;12.98;;
41711;SDS011;27399;51.516;13.670;2023-10-31T03:18:57;21.08;;;13.60;;
41711;SDS011;27399;51.516;13.670;2023-10-31T03:21:23;18.80;;;12.98;;
41711;SDS011;27399;51.516;13.670;2023-10-31T03:23:49;20.75;;;12.65;;
41711;SDS011;27399;51.516;13.670;2023-10-31T03:26:17;19.90;;;11.60;;
41711;SDS011;27399;51.516;13.670;2023-10-31T03:28:43;19.38;;;11.82;;
41711;SDS011;27399;51.516;13.670;2023-10-31T03:31:09;19.48;;;12.05;;
41711;SDS011;27399;51.516;13.670;2023-10-31T03:33:35;20.17;;;12.60;;
41711;SDS011;27399;51.516;13.670;2023-10-31T03:36:01;18.35;;;10.93;;
41711;SDS011;27399;51.516;13.670;2023-10-31T03:38:27;14.73;;;9.73;;
41711;SDS011;27399;51.516;13.670;2023-10-31T03:40:53;17.00;;;11.15;;
41711;SDS011;27399;51.516;13.670;2023-10-31T03:43:18;18.10;;;11.80;;
41711;SDS011;27399;51.516;13.670;2023-10-31T03:45:45;18.73;;;11.55;;
41711;SDS011;27399;51.516;13.670;2023-10-31T03:48:15;15.68;;;9.48;;
41711;SDS011;27399;51.516;13.670;2023-10-31T03:50:41;15.77;;;10.48;;
41711;SDS011;27399;51.516;13.670;2023-10-31T03:53:07;16.65;;;10.70;;
41711;SDS011;27399;51.516;13.670;2023-10-31T03:55:33;19.65;;;12.38;;
41711;SDS011;27399;51.516;13.670;2023-10-31T03:57:59;18.52;;;11.68;;
41711;SDS011;27399;51.516;13.670;2023-10-31T04:00:25;19.25;;;11.52;;
41711;SDS011;27399;51.516;13.670;2023-10-31T04:02:50;17.63;;;11.05;;
41711;SDS011;27399;51.516;13.670;2023-10-31T04:05:16;14.85;;;10.57;;
41711;SDS011;27399;51.516;13.670;2023-10-31T04:07:43;19.80;;;10.60;;
41711;SDS011;27399;51.516;13.670;2023-10-31T04:10:08;15.75;;;10.07;;
41711;SDS011;27399;51.516;13.670;2023-10-31T04:12:34;18.05;;;10.82;;
41711;SDS011;27399;51.516;13.670;2023-10-31T04:15:00;17.35;;;11.35;;
41711;SDS011;27399;51.516;13.670;2023-10-31T04:17:26;19.98;;;11.35;;
41711;SDS011;27399;51.516;13.670;2023-10-31T04:19:52;16.35;;;10.70;;
41711;SDS011;27399;51.516;13.670;2023-10-31T04:22:17;14.68;;;9.80;;
41711;SDS011;27399;51.516;13.670;2023-10-31T04:24:43;20.60;;;12.38;;
41711;SDS011;27399;51.516;13.670;2023-10-31T04:27:09;16.30;;;9.90;;
41711;SDS011;27399;51.516;13.670;2023-10-31T04:29:34;15.55;;;10.43;;
41711;SDS011;27399;51.516;13.670;2023-10-31T04:32:00;14.95;;;9.85;;
41711;SDS011;27399;51.516;13.670;2023-10-31T04:34:25;12.70;;;9.57;;
41711;SDS011;27399;51.516;13.670;2023-10-31T04:36:51;15.32;;;7.70;;
41711;SDS011;27399;51.516;13.670;2023-10-31T04:39:16;13.13;;;7.28;;
41711;SDS011;27399;51.516;13.670;2023-10-31T04:41:42;9.52;;;7.22;;
41711;SDS011;27399;51.516;13.670;2023-10-31T04:44:07;12.07;;;7.70;;
41711;SDS011;27399;51.516;13.670;2023-10-31T04:46:33;13.18;;;8.18;;
41711;SDS011;27399;51.516;13.670;2023-10-31T04:48:58;14.48;;;8.07;;
41711;SDS011;27399;51.516;13.670;2023-10-31T04:51:24;10.73;;;7.93;;
41711;SDS011;27399;51.516;13.670;2023-10-31T04:53:50;13.38;;;8.57;;
41711;SDS011;27399;51.516;13.670;2023-10-31T04:56:17;13.25;;;8.73;;
41711;SDS011;27399;51.516;13.670;2023-10-31T04:58:43;12.85;;;9.07;;
41711;SDS011;27399;51.516;13.670;2023-10-31T05:01:09;15.30;;;10.60;;
41711;SDS011;27399;51.516;13.670;2023-10-31T05:03:36;17.00;;;11.40;;
41711;SDS011;27399;51.516;13.670;2023-10-31T05:06:02;15.32;;;10.77;;
41711;SDS011;27399;51.516;13.670;2023-10-31T05:08:29;16.73;;;11.85;;
41711;SDS011;27399;51.516;13.670;2023-10-31T05:10:55;21.92;;;11.15;;
41711;SDS011;27399;51.516;13.670;2023-10-31T05:13:23;16.20;;;10.80;;
41711;SDS011;27399;51.516;13.670;2023-10-31T05:15:48;12.55;;;9.38;;
41711;SDS011;27399;51.516;13.670;2023-10-31T05:18:14;16.63;;;9.20;;
41711;SDS011;27399;51.516;13.670;2023-10-31T05:20:40;12.82;;;9.52;;
41711;SDS011;27399;51.516;13.670;2023-10-31T05:23:06;20.08;;;8.88;;
41711;SDS011;27399;51.516;13.670;2023-10-31T05:25:32;13.68;;;9.07;;
41711;SDS011;27399;51.516;13.670;2023-10-31T05:27:57;15.85;;;9.10;;
41711;SDS011;27399;51.516;13.670;2023-10-31T05:30:23;12.98;;;9.45;;
41711;SDS011;27399;51.516;13.670;2023-10-31T05:32:49;17.10;;;9.13;;
41711;SDS011;27399;51.516;13.670;2023-10-31T05:35:15;15.55;;;9.82;;
41711;SDS011;27399;51.516;13.670;2023-10-31T05:37:40;11.40;;;7.85;;
41711;SDS011;27399;51.516;13.670;2023-10-31T05:40:06;10.00;;;7.22;;
41711;SDS011;27399;51.516;13.670;2023-10-31T05:42:32;13.50;;;7.75;;
41711;SDS011;27399;51.516;13.670;2023-10-31T05:44:58;14.55;;;8.43;;
41711;SDS011;27399;51.516;13.670;2023-10-31T05:47:24;9.30;;;6.85;;
41711;SDS011;27399;51.516;13.670;2023-10-31T05:49:53;11.25;;;7.28;;
41711;SDS011;27399;51.516;13.670;2023-10-31T05:52:19;10.90;;;7.28;;
41711;SDS011;27399;51.516;13.670;2023-10-31T05:54:44;11.20;;;7.00;;
41711;SDS011;27399;51.516;13.670;2023-10-31T05:57:10;10.75;;;6.18;;
41711;SDS011;27399;51.516;13.670;2023-10-31T05:59:35;8.20;;;5.70;;
41711;SDS011;27399;51.516;13.670;2023-10-31T06:02:01;7.57;;;4.97;;
41711;SDS011;27399;51.516;13.670;2023-10-31T06:04:26;6.25;;;4.47;;
41711;SDS011;27399;51.516;13.670;2023-10-31T06:06:55;7.40;;;4.70;;
41711;SDS011;27399;51.516;13.670;2023-10-31T06:09:23;5.78;;;3.33;;
41711;SDS011;27399;51.516;13.670;2023-10-31T06:11:49;5.10;;;3.13;;
41711;SDS011;27399;51.516;13.670;2023-10-31T06:14:14;6.05;;;3.75;;
41711;SDS011;27399;51.516;13.670;2023-10-31T06:16:40;5.32;;;3.40;;
41711;SDS011;27399;51.516;13.670;2023-10-31T06:19:07;3.72;;;2.97;;
41711;SDS011;27399;51.516;13.670;2023-10-31T06:21:33;6.13;;;3.10;;
41711;SDS011;27399;51.516;13.670;2023-10-31T06:23:58;5.88;;;3.05;;
41711;SDS011;27399;51.516;13.670;2023-10-31T06:26:24;4.80;;;3.00;;
41711;SDS011;27399;51.516;13.670;2023-10-31T06:28:49;4.78;;;2.60;;
41711;SDS011;27399;51.516;13.670;2023-10-31T06:31:15;5.93;;;2.30;;
41711;SDS011;27399;51.516;13.670;2023-10-31T06:33:40;3.38;;;2.10;;
41711;SDS011;27399;51.516;13.670;2023-10-31T06:36:06;2.90;;;2.15;;
41711;SDS011;27399;51.516;13.670;2023-10-31T06:38:33;5.25;;;2.00;;
41711;SDS011;27399;51.516;13.670;2023-10-31T06:40:58;2.67;;;1.63;;
41711;SDS011;27399;51.516;13.670;2023-10-31T06:43:24;12.27;;;1.80;;
41711;SDS011;27399;51.516;13.670;2023-10-31T06:45:50;3.95;;;1.50;;
41711;SDS011;27399;51.516;13.670;2023-10-31T06:48:15;2.60;;;1.52;;
41711;SDS011;27399;51.516;13.670;2023-10-31T06:50:41;3.05;;;1.20;;
41711;SDS011;27399;51.516;13.670;2023-10-31T06:53:07;2.22;;;1.55;;
41711;SDS011;27399;51.516;13.670;2023-10-31T06:55:32;4.50;;;1.80;;
41711;SDS011;27399;51.516;13.670;2023-10-31T06:57:58;2.47;;;1.38;;
41711;SDS011;27399;51.516;13.670;2023-10-31T07:00:23;1.83;;;1.20;;
41711;SDS011;27399;51.516;13.670;2023-10-31T07:02:49;3.67;;;1.38;;
41711;SDS011;27399;51.516;13.670;2023-10-31T07:05:14;6.15;;;1.20;;
41711;SDS011;27399;51.516;13.670;2023-10-31T07:07:41;2.42;;;0.90;;
41711;SDS011;27399;51.516;13.670;2023-10-31T07:10:07;1.35;;;0.85;;
41711;SDS011;27399;51.516;13.670;2023-10-31T07:12:32;1.15;;;0.70;;
41711;SDS011;27399;51.516;13.670;2023-10-31T07:14:58;1.17;;;0.80;;
41711;SDS011;27399;51.516;13.670;2023-10-31T07:17:24;1.05;;;0.70;;
41711;SDS011;27399;51.516;13.670;2023-10-31T07:19:50;1.40;;;0.85;;
41711;SDS011;27399;51.516;13.670;2023-10-31T07:22:16;1.00;;;0.73;;
41711;SDS011;27399;51.516;13.670;2023-10-31T07:24:42;1.17;;;0.68;;
41711;SDS011;27399;51.516;13.670;2023-10-31T07:27:08;1.05;;;0.80;;
41711;SDS011;27399;51.516;13.670;2023-10-31T07:29:34;2.20;;;0.70;;
41711;SDS011;27399;51.516;13.670;2023-10-31T07:32:00;2.58;;;0.75;;
41711;SDS011;27399;51.516;13.670;2023-10-31T07:34:26;1.27;;;0.80;;
41711;SDS011;27399;51.516;13.670;2023-10-31T07:36:53;1.88;;;0.75;;
41711;SDS011;27399;51.516;13.670;2023-10-31T07:39:18;0.75;;;0.60;;
41711;SDS011;27399;51.516;13.670;2023-10-31T07:41:44;2.60;;;0.60;;
41711;SDS011;27399;51.516;13.670;2023-10-31T07:44:09;1.70;;;0.77;;
41711;SDS011;27399;51.516;13.670;2023-10-31T07:46:35;0.98;;;0.70;;
41711;SDS011;27399;51.516;13.670;2023-10-31T07:49:00;0.77;;;0.70;;
41711;SDS011;27399;51.516;13.670;2023-10-31T07:51:26;1.05;;;0.75;;
41711;SDS011;27399;51.516;13.670;2023-10-31T07:53:51;1.10;;;0.80;;
41711;SDS011;27399;51.516;13.670;2023-10-31T07:56:17;1.08;;;0.75;;
41711;SDS011;27399;51.516;13.670;2023-10-31T07:58:48;1.77;;;0.70;;
41711;SDS011;27399;51.516;13.670;2023-10-31T08:01:14;0.60;;;0.60;;
41711;SDS011;27399;51.516;13.670;2023-10-31T08:03:41;2.78;;;1.00;;
41711;SDS011;27399;51.516;13.670;2023-10-31T08:06:07;0.73;;;0.70;;
41711;SDS011;27399;51.516;13.670;2023-10-31T08:08:32;1.38;;;0.77;;
41711;SDS011;27399;51.516;13.670;2023-10-31T08:10:59;4.53;;;0.80;;
41711;SDS011;27399;51.516;13.670;2023-10-31T08:13:25;11.93;;;0.80;;
41711;SDS011;27399;51.516;13.670;2023-10-31T08:15:50;1.92;;;0.55;;
41711;SDS011;27399;51.516;13.670;2023-10-31T08:18:16;1.02;;;0.52;;
41711;SDS011;27399;51.516;13.670;2023-10-31T08:20:41;1.08;;;0.60;;
41711;SDS011;27399;51.516;13.670;2023-10-31T08:23:08;0.90;;;0.80;;
41711;SDS011;27399;51.516;13.670;2023-10-31T08:25:34;1.40;;;0.80;;
41711;SDS011;27399;51.516;13.670;2023-10-31T08:28:00;2.28;;;0.90;;
41711;SDS011;27399;51.516;13.670;2023-10-31T08:30:25;2.60;;;0.98;;
41711;SDS011;27399;51.516;13.670;2023-10-31T08:32:51;5.38;;;0.90;;
41711;SDS011;27399;51.516;13.670;2023-10-31T08:35:16;2.35;;;0.77;;
41711;SDS011;27399;51.516;13.670;2023-10-31T08:37:42;2.50;;;0.98;;
41711;SDS011;27399;51.516;13.670;2023-10-31T08:40:07;0.65;;;0.60;;
41711;SDS011;27399;51.516;13.670;2023-10-31T08:42:33;0.93;;;0.70;;
41711;SDS011;27399;51.516;13.670;2023-10-31T08:44:59;1.98;;;0.60;;
41711;SDS011;27399;51.516;13.670;2023-10-31T08:47:24;0.50;;;0.50;;
41711;SDS011;27399;51.516;13.670;2023-10-31T08:49:50;1.25;;;0.50;;
41711;SDS011;27399;51.516;13.670;2023-10-31T08:52:16;1.05;;;0.60;;
41711;SDS011;27399;51.516;13.670;2023-10-31T08:54:43;0.75;;;0.60;;
41711;SDS011;27399;51.516;13.670;2023-10-31T08:57:08;0.43;;;0.43;;
41711;SDS011;27399;51.516;13.670;2023-10-31T08:59:34;2.78;;;0.70;;
41711;SDS011;27399;51.516;13.670;2023-10-31T09:02:01;1.92;;;0.50;;
41711;SDS011;27399;51.516;13.670;2023-10-31T09:04:26;1.83;;;0.60;;
41711;SDS011;27399;51.516;13.670;2023-10-31T09:06:52;0.43;;;0.40;;
41711;SDS011;27399;51.516;13.670;2023-10-31T09:09:17;0.73;;;0.50;;
41711;SDS011;27399;51.516;13.670;2023-10-31T09:11:43;0.63;;;0.40;;
41711;SDS011;27399;51.516;13.670;2023-10-31T09:14:09;0.90;;;0.60;;
41711;SDS011;27399;51.516;13.670;2023-10-31T09:16:34;3.58;;;0.50;;
41711;SDS011;27399;51.516;13.670;2023-10-31T09:19:00;2.05;;;0.60;;
41711;SDS011;27399;51.516;13.670;2023-10-31T09:21:26;0.82;;;0.60;;
41711;SDS011;27399;51.516;13.670;2023-10-31T09:23:51;4.88;;;0.50;;
41711;SDS011;27399;51.516;13.670;2023-10-31T09:26:17;2.72;;;0.75;;
41711;SDS011;27399;51.516;13.670;2023-10-31T09:28:43;1.15;;;0.50;;
41711;SDS011;27399;51.516;13.670;2023-10-31T09:31:15;2.92;;;0.75;;
41711;SDS011;27399;51.516;13.670;2023-10-31T09:33:44;1.45;;;0.55;;
41711;SDS011;27399;51.516;13.670;2023-10-31T09:36:10;2.90;;;0.60;;
41711;SDS011;27399;51.516;13.670;2023-10-31T09:38:37;0.77;;;0.55;;
41711;SDS011;27399;51.516;13.670;2023-10-31T09:41:03;2.05;;;0.68;;
41711;SDS011;27399;51.516;13.670;2023-10-31T09:43:29;1.25;;;0.70;;
41711;SDS011;27399;51.516;13.670;2023-10-31T09:45:55;0.43;;;0.43;;
41711;SDS011;27399;51.516;13.670;2023-10-31T09:48:22;1.15;;;0.60;;
41711;SDS011;27399;51.516;13.670;2023-10-31T09:50:48;1.88;;;0.50;;
41711;SDS011;27399;51.516;13.670;2023-10-31T09:53:15;1.55;;;0.57;;
41711;SDS011;27399;51.516;13.670;2023-10-31T09:55:44;1.70;;;0.50;;
41711;SDS011;27399;51.516;13.670;2023-10-31T09:58:10;3.75;;;0.75;;
41711;SDS011;27399;51.516;13.670;2023-10-31T10:00:36;1.35;;;0.47;;
41711;SDS011;27399;51.516;13.670;2023-10-31T10:03:03;2.40;;;0.50;;
41711;SDS011;27399;51.516;13.670;2023-10-31T10:05:32;1.05;;;0.40;;
41711;SDS011;27399;51.516;13.670;2023-10-31T10:08:00;0.88;;;0.40;;
41711;SDS011;27399;51.516;13.670;2023-10-31T10:10:25;0.82;;;0.70;;
41711;SDS011;27399;51.516;13.670;2023-10-31T10:12:51;1.75;;;0.47;;
41711;SDS011;27399;51.516;13.670;2023-10-31T10:15:18;0.52;;;0.40;;
41711;SDS011;27399;51.516;13.670;2023-10-31T10:17:50;1.58;;;0.43;;
41711;SDS011;27399;51.516;13.670;2023-10-31T10:20:16;0.65;;;0.30;;
41711;SDS011;27399;51.516;13.670;2023-10-31T10:22:43;3.85;;;0.50;;
41711;SDS011;27399;51.516;13.670;2023-10-31T10:25:10;0.73;;;0.40;;
41711;SDS011;27399;51.516;13.670;2023-10-31T10:27:43;0.77;;;0.40;;
41711;SDS011;27399;51.516;13.670;2023-10-31T10:30:13;2.85;;;0.40;;
41711;SDS011;27399;51.516;13.670;2023-10-31T10:32:40;1.25;;;0.40;;
41711;SDS011;27399;51.516;13.670;2023-10-31T10:35:06;0.95;;;0.50;;
41711;SDS011;27399;51.516;13.670;2023-10-31T10:37:33;6.65;;;0.40;;
41711;SDS011;27399;51.516;13.670;2023-10-31T10:40:02;0.82;;;0.40;;
41711;SDS011;27399;51.516;13.670;2023-10-31T10:45:23;0.10;;;0.10;;
41711;SDS011;27399;51.516;13.670;2023-10-31T10:47:50;4.28;;;0.60;;
41711;SDS011;27399;51.516;13.670;2023-10-31T10:50:18;0.43;;;0.22;;
41711;SDS011;27399;51.516;13.670;2023-10-31T10:56:08;0.55;;;0.28;;
41711;SDS011;27399;51.516;13.670;2023-10-31T10:58:48;2.58;;;0.40;;
41711;SDS011;27399;51.516;13.670;2023-10-31T11:01:20;3.38;;;0.38;;
41711;SDS011;27399;51.516;13.670;2023-10-31T11:03:46;2.55;;;0.25;;
41711;SDS011;27399;51.516;13.670;2023-10-31T11:06:12;1.15;;;0.30;;
41711;SDS011;27399;51.516;13.670;2023-10-31T11:08:38;0.47;;;0.40;;
41711;SDS011;27399;51.516;13.670;2023-10-31T11:11:05;1.55;;;0.73;;
41711;SDS011;27399;51.516;13.670;2023-10-31T11:13:31;0.30;;;0.30;;
41711;SDS011;27399;51.516;13.670;2023-10-31T11:15:59;2.40;;;0.25;;
41711;SDS011;27399;51.516;13.670;2023-10-31T11:18:30;0.30;;;0.30;;
41711;SDS011;27399;51.516;13.670;2023-10-31T11:20:56;0.30;;;0.30;;
41711;SDS011;27399;51.516;13.670;2023-10-31T11:23:22;2.45;;;0.30;;
41711;SDS011;27399;51.516;13.670;2023-10-31T11:25:49;0.25;;;0.25;;
41711;SDS011;27399;51.516;13.670;2023-10-31T11:28:18;1.60;;;0.25;;
41711;SDS011;27399;51.516;13.670;2023-10-31T11:30:45;1.13;;;0.30;;
41711;SDS011;27399;51.516;13.670;2023-10-31T11:33:14;0.20;;;0.20;;
41711;SDS011;27399;51.516;13.670;2023-10-31T11:35:41;0.30;;;0.30;;
41711;SDS011;27399;51.516;13.670;2023-10-31T11:38:10;0.98;;;0.52;;
41711;SDS011;27399;51.516;13.670;2023-10-31T11:40:37;0.50;;;0.40;;
41711;SDS011;27399;51.516;13.670;2023-10-31T11:43:22;0.40;;;0.30;;
41711;SDS011;27399;51.516;13.670;2023-10-31T11:45:48;0.52;;;0.30;;
41711;SDS011;27399;51.516;13.670;2023-10-31T11:48:14;0.30;;;0.30;;
41711;SDS011;27399;51.516;13.670;2023-10-31T11:50:40;0.60;;;0.30;;
41711;SDS011;27399;51.516;13.670;2023-10-31T11:53:07;0.63;;;0.20;;
41711;SDS011;27399;51.516;13.670;2023-10-31T11:55:43;0.30;;;0.30;;
41711;SDS011;27399;51.516;13.670;2023-10-31T11:58:21;0.63;;;0.30;;
41711;SDS011;27399;51.516;13.670;2023-10-31T12:00:49;0.73;;;0.32;;
41711;SDS011;27399;51.516;13.670;2023-10-31T12:03:16;0.45;;;0.40;;
41711;SDS011;27399;51.516;13.670;2023-10-31T12:05:53;0.30;;;0.30;;
41711;SDS011;27399;51.516;13.670;2023-10-31T12:08:26;0.25;;;0.25;;
41711;SDS011;27399;51.516;13.670;2023-10-31T12:11:29;1.50;;;0.40;;
41711;SDS011;27399;51.516;13.670;2023-10-31T12:13:56;1.35;;;0.40;;
41711;SDS011;27399;51.516;13.670;2023-10-31T12:16:29;0.20;;;0.20;;
41711;SDS011;27399;51.516;13.670;2023-10-31T12:19:00;0.68;;;0.38;;
41711;SDS011;27399;51.516;13.670;2023-10-31T12:21:36;1.20;;;0.38;;
41711;SDS011;27399;51.516;13.670;2023-10-31T12:24:10;1.42;;;0.38;;
41711;SDS011;27399;51.516;13.670;2023-10-31T12:26:37;2.10;;;0.40;;
41711;SDS011;27399;51.516;13.670;2023-10-31T12:29:10;0.60;;;0.38;;
41711;SDS011;27399;51.516;13.670;2023-10-31T12:31:43;0.50;;;0.50;;
41711;SDS011;27399;51.516;13.670;2023-10-31T12:34:17;0.40;;;0.40;;
41711;SDS011;27399;51.516;13.670;2023-10-31T12:36:45;5.07;;;0.40;;
41711;SDS011;27399;51.516;13.670;2023-10-31T12:39:12;0.32;;;0.30;;
41711;SDS011;27399;51.516;13.670;2023-10-31T12:41:39;1.23;;;0.45;;
41711;SDS011;27399;51.516;13.670;2023-10-31T12:44:06;1.52;;;0.40;;
41711;SDS011;27399;51.516;13.670;2023-10-31T12:46:38;3.20;;;0.38;;
41711;SDS011;27399;51.516;13.670;2023-10-31T12:49:10;0.33;;;0.30;;
41711;SDS011;27399;51.516;13.670;2023-10-31T12:51:37;0.90;;;0.30;;
41711;SDS011;27399;51.516;13.670;2023-10-31T12:54:03;0.30;;;0.30;;
41711;SDS011;27399;51.516;13.670;2023-10-31T12:56:41;0.45;;;0.22;;
41711;SDS011;27399;51.516;13.670;2023-10-31T12:59:10;1.55;;;0.30;;
41711;SDS011;27399;51.516;13.670;2023-10-31T13:01:42;0.32;;;0.32;;
41711;SDS011;27399;51.516;13.670;2023-10-31T13:04:08;2.15;;;0.40;;
41711;SDS011;27399;51.516;13.670;2023-10-31T13:06:34;0.50;;;0.40;;
41711;SDS011;27399;51.516;13.670;2023-10-31T13:09:01;0.65;;;0.40;;
41711;SDS011;27399;51.516;13.670;2023-10-31T13:11:31;1.95;;;0.30;;
41711;SDS011;27399;51.516;13.670;2023-10-31T13:13:57;1.30;;;0.60;;
41711;SDS011;27399;51.516;13.670;2023-10-31T13:16:23;1.20;;;0.40;;
41711;SDS011;27399;51.516;13.670;2023-10-31T13:18:52;1.25;;;0.60;;
41711;SDS011;27399;51.516;13.670;2023-10-31T13:21:19;2.17;;;0.50;;
41711;SDS011;27399;51.516;13.670;2023-10-31T13:23:45;0.50;;;0.45;;
41711;SDS011;27399;51.516;13.670;2023-10-31T13:26:13;0.63;;;0.40;;
41711;SDS011;27399;51.516;13.670;2023-10-31T13:28:38;0.50;;;0.40;;
41711;SDS011;27399;51.516;13.670;2023-10-31T13:31:05;0.75;;;0.40;;
41711;SDS011;27399;51.516;13.670;2023-10-31T13:33:32;2.70;;;0.65;;
41711;SDS011;27399;51.516;13.670;2023-10-31T13:35:58;0.80;;;0.30;;
41711;SDS011;27399;51.516;13.670;2023-10-31T13:38:24;0.60;;;0.40;;
41711;SDS011;27399;51.516;13.670;2023-10-31T13:40:49;1.20;;;0.45;;
41711;SDS011;27399;51.516;13.670;2023-10-31T13:43:15;4.38;;;0.43;;
41711;SDS011;27399;51.516;13.670;2023-10-31T13:45:40;0.93;;;0.50;;
41711;SDS011;27399;51.516;13.670;2023-10-31T13:48:06;0.57;;;0.40;;
41711;SDS011;27399;51.516;13.670;2023-10-31T13:50:31;0.45;;;0.32;;
41711;SDS011;27399;51.516;13.670;2023-10-31T13:52:57;1.65;;;0.50;;
41711;SDS011;27399;51.516;13.670;2023-10-31T13:55:22;1.77;;;0.57;;
41711;SDS011;27399;51.516;13.670;2023-10-31T13:57:51;0.85;;;0.57;;
41711;SDS011;27399;51.516;13.670;2023-10-31T14:00:17;3.65;;;0.40;;
41711;SDS011;27399;51.516;13.670;2023-10-31T14:02:42;0.60;;;0.45;;
41711;SDS011;27399;51.516;13.670;2023-10-31T14:05:08;0.85;;;0.68;;
41711;SDS011;27399;51.516;13.670;2023-10-31T14:07:33;0.40;;;0.40;;
41711;SDS011;27399;51.516;13.670;2023-10-31T14:10:00;0.52;;;0.52;;
41711;SDS011;27399;51.516;13.670;2023-10-31T14:12:26;0.47;;;0.40;;
41711;SDS011;27399;51.516;13.670;2023-10-31T14:14:53;1.00;;;0.50;;
41711;SDS011;27399;51.516;13.670;2023-10-31T14:17:19;1.13;;;0.80;;
41711;SDS011;27399;51.516;13.670;2023-10-31T14:19:44;1.15;;;0.82;;
41711;SDS011;27399;51.516;13.670;2023-10-31T14:22:11;1.02;;;0.73;;
41711;SDS011;27399;51.516;13.670;2023-10-31T14:24:37;1.75;;;0.70;;
41711;SDS011;27399;51.516;13.670;2023-10-31T14:27:02;0.65;;;0.50;;
41711;SDS011;27399;51.516;13.670;2023-10-31T14:29:28;1.23;;;0.50;;
41711;SDS011;27399;51.516;13.670;2023-10-31T14:31:54;2.75;;;0.70;;
41711;SDS011;27399;51.516;13.670;2023-10-31T14:34:20;0.70;;;0.45;;